VEGT/GAU METAR and TAF weather

Enter ICAO airport designator
Station Type Date Time Source
VEGT METAR 2020/01/24 21:00 UTC NOAA

VEGT 242100Z 00000KT 1500 BR FEW018 SCT100 12/11 Q1017 NOSIG


Station Type Date Time Source
VEGT Decoded METAR 2020/01/24 21:00 UTC NOAA

Gauhati, India (VEGT) 26-06N 091-35E 54M
Jan 24, 2020 - 04:00 PM EST / 2020.01.24 2100 UTC
Wind: Calm:0
Visibility: less than 1 mile:0
Sky conditions: partly cloudy
Weather: mist
Temperature: 53 F (12 C)
Dew Point: 51 F (11 C)
Relative Humidity: 93%
Pressure (altimeter): 30.03 in. Hg (1017 hPa)
ob: VEGT 242100Z 00000KT 1500 BR FEW018 SCT100 12/11 Q1017 NOSIG
cycle: 21

Station Type Date Time Source
VEGT TAF 2016/03/24 00:45 UTC NOAA

TAF VEGT 242300Z 2500/2606 00000KT 2000 BR FEW020
BECMG 2503/2506 05008KT 4000 HZ
BECMG 2506/2509 5000 HZ
BECMG 2512/2514 00000KT 4000 HZ FEW020 SCT100
BECMG 2515/2518 2500 HZ
BECMG 2603/2606 05008KT 4000 HZ FEW020=

Example: see airport list